INV weather

Inverness Airport
Inverness, Scotland, United Kingdom

Public forecast

Using degrees Celsius for public forecast. Weather courtesy of forecast.io.

METAR (pilot weather report)

Retrieved 2019/04/18 23:20 UTC (38 minutes ago):

EGPE 182320Z AUTO 00000KT 9999 NCD 06/03 Q1029

TAF (pilot weather forecast)

Forecast is more than 12 hours old.

Closest forecast is RAF Kinloss, 16.9 nm (31.4 km) ENE. Retrieved 2011/10/06 06:15 UTC (8 years ago):

TAF TAF EGQK 060601Z 0606/0618 27015G25KT 9999 SCT030 TEMPO 0606/0618 7000 SHRA SCT022 PROB30 TEMPO 0609/0616 27025G32KT 4000 +SHRA SCT014CB BECMG 0614/0617 30020G30KT